Airfield :
LOGIN :

Register | Disclaimer

   EN    FR    IT 

 










Legend :    VFR   Marginal VFR   IFR   Intensive IFR   Very Intensive IFR
Visi :
Ceiling :
>= 8 km
>= 3000ft
5 to 8 km
1000 to 3000 ft
1500m to 5 km
500 to 1000 ft
800 to 1500m
200 to 500 ft
< 800m
< 200 ft
Symbols :   Thunderstorms  Fog  Heavy snow  Heavy precipitations  Wind > 20 kt
SIGMETs :     Misc.  Thunderstorms  Icing  Turbulence  Mountain Waves  Volcanic Ashes






- Airport Elevation : 39 ft
- IATA code : ANR


EBAW - Anvers / Antwerpen Deurne

CURRENT METAR :
  • 190020Z AUTO 05002KT CAVOK 21/16 Q1020

EXPIRED METARs :
  • 182350Z AUTO VRB02KT CAVOK 21/16 Q1020
  • 182320Z AUTO VRB01KT CAVOK 21/16 Q1020
  • 182250Z AUTO 00000KT CAVOK 21/16 Q1020
  • 182220Z AUTO VRB01KT CAVOK 21/16 Q1020
  • 182150Z AUTO VRB02KT CAVOK 22/16 Q1020
  • 182120Z AUTO VRB01KT CAVOK 22/16 Q1021
  • 182050Z VRB01KT CAVOK 22/16 Q1021 NOSIG
  • 182020Z VRB01KT CAVOK 22/16 Q1021 NOSIG
  • 181950Z 00000KT CAVOK 23/17 Q1020 NOSIG

TAF TAF EBAW
Valid from the 19 at 00:00 until the 19 at 09:00 UTC


182300Z 1900/1909 09003KT CAVOK



MET'MAP, your aeronautical weather chart ! - Copyright ORBIFLY December 2007 - Disclaimer

ORBIFLY MET'MAP TEAM :

Programming & Development : Alexandra Zaïnal
Original concept : Baudouin d'Aumeries
Technical & hardware support : Manuel Goepfert
Assistance : Marc-Olivier Méhu




SOURCES & CREDITS :

   NOAA